createdAt,value
2022-12-22T00:02:06.842Z,10.90
2022-12-22T00:04:53.048Z,10.27
2022-12-22T00:07:39.219Z,11.18
2022-12-22T00:10:25.741Z,9.88
2022-12-22T00:13:11.880Z,12.98
2022-12-22T00:15:57.681Z,12.57
2022-12-22T00:18:45.241Z,9.35
2022-12-22T00:21:32.089Z,12.55
2022-12-22T00:24:18.348Z,8.82
2022-12-22T00:27:05.111Z,10.80
2022-12-22T00:29:57.503Z,10.45
2022-12-22T00:32:53.325Z,10.93
2022-12-22T00:35:43.292Z,10.85
2022-12-22T00:38:36.855Z,10.43
2022-12-22T00:41:23.816Z,11.15
2022-12-22T00:44:10.058Z,10.75
2022-12-22T00:46:59.300Z,11.30
2022-12-22T00:49:48.143Z,12.77
2022-12-22T00:52:36.072Z,11.98
2022-12-22T00:55:31.064Z,14.45
2022-12-22T00:58:18.123Z,14.82
2022-12-22T01:01:04.307Z,13.55
2022-12-22T01:03:50.410Z,15.80
2022-12-22T01:06:36.231Z,15.68
2022-12-22T01:09:24.146Z,13.25
2022-12-22T01:12:10.273Z,16.33
2022-12-22T01:14:56.176Z,14.88
2022-12-22T01:17:41.914Z,17.65
2022-12-22T01:20:28.394Z,18.50
2022-12-22T01:23:14.578Z,18.67
2022-12-22T01:26:00.868Z,18.95
2022-12-22T01:28:46.803Z,17.05
2022-12-22T01:31:46.716Z,14.88
2022-12-22T01:34:32.643Z,16.63
2022-12-22T01:37:18.783Z,18.35
2022-12-22T01:40:04.956Z,17.38
2022-12-22T01:42:52.973Z,16.00
2022-12-22T01:45:41.252Z,17.92
2022-12-22T01:48:35.472Z,17.92
2022-12-22T01:51:25.609Z,16.67
2022-12-22T01:54:12.751Z,18.95
2022-12-22T01:56:59.309Z,19.02
2022-12-22T01:59:45.479Z,17.60
2022-12-22T02:02:32.064Z,17.40
2022-12-22T02:05:20.353Z,13.50
2022-12-22T02:08:21.820Z,18.23
2022-12-22T02:11:59.127Z,13.70
2022-12-22T02:15:31.858Z,17.92
2022-12-22T02:18:38.168Z,18.52
2022-12-22T02:21:32.074Z,15.98
2022-12-22T02:24:55.598Z,21.23
2022-12-22T02:27:43.606Z,19.55
2022-12-22T02:30:30.670Z,16.95
2022-12-22T02:33:17.631Z,19.83
2022-12-22T02:36:30.551Z,18.50
2022-12-22T02:42:42.933Z,17.58
2022-12-22T02:45:50.838Z,19.40
2022-12-22T02:48:59.821Z,16.92
2022-12-22T02:51:48.896Z,17.30
2022-12-22T02:54:36.660Z,18.75
2022-12-22T02:57:25.262Z,20.48
2022-12-22T03:00:11.427Z,18.70
2022-12-22T03:02:57.558Z,20.77
2022-12-22T03:05:43.577Z,21.83
2022-12-22T03:08:29.298Z,18.25
2022-12-22T03:11:15.459Z,22.65
2022-12-22T03:14:01.386Z,24.65
2022-12-22T03:16:47.397Z,21.40
2022-12-22T03:19:33.340Z,19.70
2022-12-22T03:22:19.235Z,19.77
2022-12-22T03:25:04.916Z,21.50
2022-12-22T03:27:32.656Z,20.63
2022-12-22T03:29:59.900Z,20.75
2022-12-22T03:32:27.423Z,20.10
2022-12-22T03:34:54.818Z,21.05
2022-12-22T03:37:22.409Z,21.48
2022-12-22T03:39:49.656Z,21.90
2022-12-22T03:42:35.602Z,35.38
2022-12-22T03:45:21.394Z,18.85
2022-12-22T03:47:48.979Z,20.80
2022-12-22T03:50:16.285Z,21.35
2022-12-22T03:52:43.853Z,18.00
2022-12-22T03:55:11.283Z,24.08
2022-12-22T03:57:38.817Z,18.83
2022-12-22T04:00:06.953Z,20.45
2022-12-22T04:02:39.695Z,19.92
2022-12-22T04:05:07.624Z,22.98
2022-12-22T04:07:35.156Z,18.92
2022-12-22T04:10:21.178Z,20.13
2022-12-22T04:12:55.123Z,20.10
2022-12-22T04:15:26.879Z,21.90
2022-12-22T04:17:55.095Z,17.25
2022-12-22T04:20:24.160Z,19.67
2022-12-22T04:22:51.703Z,17.65
2022-12-22T04:25:19.180Z,19.17
2022-12-22T04:27:46.822Z,17.48
2022-12-22T04:30:15.086Z,15.45
2022-12-22T04:32:42.925Z,16.70
2022-12-22T04:35:11.100Z,18.10
2022-12-22T04:37:38.667Z,17.73
2022-12-22T04:40:06.646Z,17.77
2022-12-22T04:42:34.249Z,16.40
2022-12-22T04:45:01.485Z,16.90
2022-12-22T04:47:29.033Z,20.83
2022-12-22T04:49:56.579Z,17.92
2022-12-22T04:52:24.167Z,17.33
2022-12-22T04:54:51.378Z,17.95
2022-12-22T04:57:19.720Z,16.13
2022-12-22T04:59:47.447Z,21.88
2022-12-22T05:02:15.193Z,18.80
2022-12-22T05:04:42.523Z,16.70
2022-12-22T05:07:10.136Z,16.35
2022-12-22T05:09:37.454Z,19.40
2022-12-22T05:12:25.359Z,21.95
2022-12-22T05:14:53.078Z,19.85
2022-12-22T05:17:20.584Z,19.15
2022-12-22T05:19:47.943Z,19.85
2022-12-22T05:22:15.593Z,20.30
2022-12-22T05:24:42.844Z,20.50
2022-12-22T05:27:11.704Z,17.55
2022-12-22T05:29:39.039Z,19.50
2022-12-22T05:32:06.639Z,21.13
2022-12-22T05:34:33.954Z,19.00
2022-12-22T05:37:01.718Z,20.33
2022-12-22T05:39:29.046Z,20.35
2022-12-22T05:41:56.591Z,19.95
2022-12-22T05:44:23.823Z,18.60
2022-12-22T05:46:54.384Z,20.20
2022-12-22T05:49:21.692Z,20.00
2022-12-22T05:51:50.002Z,20.20
2022-12-22T05:54:17.277Z,23.45
2022-12-22T05:56:44.850Z,20.15
2022-12-22T05:59:12.477Z,19.95
2022-12-22T06:01:40.124Z,19.45
2022-12-22T06:04:07.533Z,17.52
2022-12-22T06:06:35.093Z,21.48
2022-12-22T06:09:02.373Z,17.58
2022-12-22T06:11:29.926Z,20.27
2022-12-22T06:13:57.272Z,20.52
2022-12-22T06:16:24.879Z,19.60
2022-12-22T06:18:52.235Z,18.90
2022-12-22T06:21:19.825Z,17.50
2022-12-22T06:23:47.159Z,20.75
2022-12-22T06:26:14.693Z,23.25
2022-12-22T06:28:41.895Z,23.38
2022-12-22T06:31:09.586Z,28.15
2022-12-22T06:33:37.010Z,23.35
2022-12-22T06:36:06.295Z,25.63
2022-12-22T06:38:34.526Z,23.38
2022-12-22T06:41:02.341Z,23.70
2022-12-22T06:43:29.723Z,24.13
2022-12-22T06:45:57.370Z,22.67
2022-12-22T06:48:24.793Z,24.75
2022-12-22T06:50:52.363Z,27.10
2022-12-22T06:53:19.615Z,27.20
2022-12-22T06:55:47.237Z,25.33
2022-12-22T06:58:14.496Z,23.02
2022-12-22T07:00:43.218Z,24.05
2022-12-22T07:03:10.651Z,26.30
2022-12-22T07:05:38.373Z,26.73
2022-12-22T07:08:08.887Z,28.60
2022-12-22T07:10:55.926Z,29.27
2022-12-22T07:13:24.523Z,32.80
2022-12-22T07:15:59.493Z,31.90
2022-12-22T07:18:32.999Z,31.42
2022-12-22T07:21:02.176Z,29.73
2022-12-22T07:23:30.396Z,27.63
2022-12-22T07:25:58.845Z,30.98
2022-12-22T07:28:26.948Z,29.17
2022-12-22T07:30:55.696Z,26.10
2022-12-22T07:33:23.389Z,27.00
2022-12-22T07:36:11.740Z,33.78
2022-12-22T07:38:41.976Z,25.38
2022-12-22T07:41:29.671Z,30.33
2022-12-22T07:43:59.197Z,25.45
2022-12-22T07:46:29.338Z,26.67
2022-12-22T07:49:15.335Z,30.40
2022-12-22T07:51:43.304Z,26.80
2022-12-22T07:54:13.750Z,26.65
2022-12-22T07:56:42.271Z,27.33
2022-12-22T07:59:10.896Z,23.20
2022-12-22T08:01:40.095Z,25.98
2022-12-22T08:04:12.477Z,29.13
2022-12-22T08:06:40.728Z,28.95
2022-12-22T08:09:08.958Z,28.70
2022-12-22T08:11:36.807Z,28.00
2022-12-22T08:14:04.122Z,25.20
2022-12-22T08:16:31.951Z,29.70
2022-12-22T08:18:59.258Z,32.25
2022-12-22T08:21:26.868Z,28.45
2022-12-22T08:23:54.122Z,29.52
2022-12-22T08:26:40.800Z,28.15
2022-12-22T08:29:13.942Z,29.17
2022-12-22T08:31:42.106Z,28.08
2022-12-22T08:34:13.022Z,26.83
2022-12-22T08:36:44.976Z,27.10
2022-12-22T08:39:13.380Z,27.40
2022-12-22T08:41:50.207Z,27.42
2022-12-22T08:44:22.995Z,30.13
2022-12-22T08:46:52.702Z,27.30
2022-12-22T08:49:20.329Z,24.85
2022-12-22T08:51:48.037Z,28.40
2022-12-22T08:54:15.726Z,27.70
2022-12-22T08:56:44.252Z,26.13
2022-12-22T08:59:12.598Z,25.35
2022-12-22T09:01:48.248Z,29.63
2022-12-22T09:04:19.797Z,27.92
2022-12-22T09:06:48.446Z,24.70
2022-12-22T09:09:16.739Z,28.10
2022-12-22T09:11:44.458Z,30.27
2022-12-22T09:14:12.737Z,29.15
2022-12-22T09:16:40.883Z,30.15
2022-12-22T09:19:08.955Z,26.27
2022-12-22T09:21:36.602Z,29.45
2022-12-22T09:24:07.783Z,30.48
2022-12-22T09:26:36.172Z,31.95
2022-12-22T09:29:04.217Z,30.83
2022-12-22T09:31:32.574Z,31.17
2022-12-22T09:34:00.521Z,27.23
2022-12-22T09:36:31.014Z,32.63
2022-12-22T09:38:58.517Z,29.50
2022-12-22T09:41:35.146Z,34.65
2022-12-22T09:44:20.124Z,34.78
2022-12-22T09:46:47.965Z,30.45
2022-12-22T09:49:18.694Z,30.90
2022-12-22T09:52:22.807Z,30.07
2022-12-22T09:54:50.800Z,27.60
2022-12-22T09:57:18.579Z,28.95
2022-12-22T09:59:45.993Z,28.38
2022-12-22T10:02:34.915Z,30.77
2022-12-22T10:05:31.093Z,32.63
2022-12-22T10:08:02.033Z,34.50
2022-12-22T10:10:31.637Z,33.00
2022-12-22T10:13:02.107Z,34.38
2022-12-22T10:15:37.926Z,32.83
2022-12-22T10:18:15.141Z,27.88
2022-12-22T10:20:45.570Z,32.83
2022-12-22T10:23:29.009Z,27.88
2022-12-22T10:28:47.855Z,24.88
2022-12-22T10:31:21.846Z,29.50
2022-12-22T10:33:52.576Z,27.33
2022-12-22T10:36:31.667Z,23.42
2022-12-22T10:39:03.219Z,22.83
2022-12-22T10:41:47.061Z,22.20
2022-12-22T10:44:17.295Z,20.67
2022-12-22T10:46:51.199Z,19.27
2022-12-22T10:49:23.174Z,25.73
2022-12-22T10:52:13.719Z,27.63
2022-12-22T10:54:42.876Z,23.45
2022-12-22T10:57:18.893Z,22.85
2022-12-22T11:00:00.995Z,26.40
2022-12-22T11:02:38.956Z,25.35
2022-12-22T11:05:09.562Z,24.58
2022-12-22T11:07:47.491Z,28.55
2022-12-22T11:10:15.093Z,28.00
2022-12-22T11:13:02.518Z,29.55
2022-12-22T11:15:51.876Z,30.58
2022-12-22T11:18:34.135Z,28.15
2022-12-22T11:21:24.515Z,30.75
2022-12-22T11:24:21.704Z,30.02
2022-12-22T11:27:27.913Z,28.45
2022-12-22T11:30:07.840Z,37.58
2022-12-22T11:32:54.564Z,34.95
2022-12-22T11:36:01.613Z,40.58
2022-12-22T11:38:48.249Z,44.35
2022-12-22T11:41:34.924Z,46.15
2022-12-22T11:44:24.380Z,40.80
2022-12-22T11:47:00.674Z,44.13
2022-12-22T11:49:40.564Z,42.35
2022-12-22T11:52:13.973Z,41.92
2022-12-22T11:54:44.866Z,39.28
2022-12-22T11:57:27.112Z,39.33
2022-12-22T12:00:04.081Z,38.38
2022-12-22T12:03:06.966Z,38.33
2022-12-22T12:05:54.629Z,37.42
2022-12-22T12:08:26.842Z,42.63
2022-12-22T12:11:18.560Z,38.72
2022-12-22T12:14:13.325Z,46.33
2022-12-22T12:16:49.566Z,47.83
2022-12-22T12:19:28.266Z,53.00
2022-12-22T12:22:03.979Z,47.00
2022-12-22T12:24:55.434Z,46.65
2022-12-22T12:27:44.373Z,47.63
2022-12-22T12:33:21.492Z,54.15
2022-12-22T12:35:53.150Z,52.83
2022-12-22T12:41:45.680Z,58.55
2022-12-22T12:44:15.969Z,55.45
2022-12-22T12:46:54.194Z,64.75
2022-12-22T12:49:58.724Z,64.63
2022-12-22T12:52:52.158Z,64.80
2022-12-22T12:55:32.848Z,63.58
2022-12-22T12:58:04.708Z,61.83
2022-12-22T13:00:32.607Z,67.72
2022-12-22T13:03:00.872Z,72.18
2022-12-22T13:06:02.702Z,63.45
2022-12-22T13:08:31.956Z,71.80
2022-12-22T13:10:59.517Z,75.07
2022-12-22T13:13:26.717Z,72.57
2022-12-22T13:16:00.530Z,68.53
2022-12-22T13:18:30.805Z,79.22
2022-12-22T13:21:42.062Z,83.32
2022-12-22T13:26:47.220Z,89.75
2022-12-22T13:29:20.505Z,81.63
2022-12-22T13:32:02.083Z,88.57
2022-12-22T13:34:51.363Z,95.32
2022-12-22T13:37:27.622Z,116.18
2022-12-22T13:40:15.647Z,128.50
2022-12-22T13:42:47.828Z,112.65
2022-12-22T13:45:32.744Z,123.82
2022-12-22T13:48:02.477Z,129.02
2022-12-22T13:50:34.673Z,122.15
2022-12-22T13:53:04.054Z,126.70
2022-12-22T13:55:33.196Z,115.50
2022-12-22T13:58:29.949Z,118.63
2022-12-22T14:01:17.378Z,108.22
2022-12-22T14:04:00.223Z,132.57
2022-12-22T14:06:30.229Z,125.50
2022-12-22T14:09:12.821Z,157.68
2022-12-22T14:11:47.092Z,139.68
2022-12-22T14:14:23.797Z,143.48
2022-12-22T14:16:54.063Z,134.88
2022-12-22T14:19:23.738Z,126.30
2022-12-22T14:22:10.087Z,124.30
2022-12-22T14:24:44.823Z,120.40
2022-12-22T14:27:36.522Z,129.27
2022-12-22T14:30:07.773Z,124.18
2022-12-22T14:32:41.559Z,94.83
2022-12-22T14:35:21.336Z,111.30
2022-12-22T14:38:13.599Z,115.28
2022-12-22T14:40:43.661Z,107.05
2022-12-22T14:43:34.737Z,109.68
2022-12-22T14:46:09.021Z,107.43
2022-12-22T14:48:45.861Z,102.82
2022-12-22T14:51:20.169Z,90.57
2022-12-22T14:53:56.761Z,85.07
2022-12-22T14:56:26.785Z,86.63
2022-12-22T14:59:12.411Z,86.18
2022-12-22T15:01:40.224Z,84.68
2022-12-22T15:04:17.427Z,76.93
2022-12-22T15:06:48.140Z,75.18
2022-12-22T15:09:15.357Z,80.65
2022-12-22T15:12:11.269Z,69.30
2022-12-22T15:14:39.226Z,64.93
2022-12-22T15:17:15.731Z,71.55
2022-12-22T15:19:43.076Z,66.00
2022-12-22T15:22:12.413Z,67.47
2022-12-22T15:24:39.744Z,61.70
2022-12-22T15:27:08.587Z,64.40
2022-12-22T15:29:35.897Z,59.55
2022-12-22T15:32:03.739Z,61.50
2022-12-22T15:34:32.087Z,63.42
2022-12-22T15:36:59.639Z,61.58
2022-12-22T15:39:26.949Z,58.95
2022-12-22T15:41:54.898Z,59.35
2022-12-22T15:44:22.650Z,59.60
2022-12-22T15:46:57.775Z,54.90
2022-12-22T15:49:28.054Z,56.40
2022-12-22T15:51:59.324Z,51.63
2022-12-22T15:54:28.136Z,53.30
2022-12-22T15:56:56.196Z,49.65
2022-12-22T15:59:25.808Z,53.92
2022-12-22T16:02:00.486Z,54.85
2022-12-22T16:04:29.561Z,50.80
2022-12-22T16:06:59.207Z,45.58
2022-12-22T16:09:32.648Z,53.10
2022-12-22T16:12:00.397Z,49.88
2022-12-22T16:14:29.276Z,49.65
2022-12-22T16:16:58.896Z,35.65
2022-12-22T16:19:26.159Z,46.65
2022-12-22T16:21:54.290Z,46.38
2022-12-22T16:24:36.079Z,45.88
2022-12-22T16:27:04.336Z,45.67
2022-12-22T16:29:31.645Z,38.95
2022-12-22T16:32:23.295Z,39.47
2022-12-22T16:34:50.708Z,38.13
2022-12-22T16:37:18.396Z,33.97
2022-12-22T16:39:46.644Z,35.35
2022-12-22T16:45:04.459Z,30.25
2022-12-22T16:47:35.593Z,26.67
2022-12-22T16:50:03.077Z,25.17
2022-12-22T16:52:41.473Z,27.70
2022-12-22T16:55:16.833Z,22.50
2022-12-22T16:57:44.826Z,22.65
2022-12-22T17:00:21.525Z,21.13
2022-12-22T17:02:55.382Z,23.17
2022-12-22T17:05:31.873Z,18.90
2022-12-22T17:08:00.831Z,20.90
2022-12-22T17:10:28.082Z,20.85
2022-12-22T17:12:58.528Z,20.52
2022-12-22T17:15:25.804Z,19.88
2022-12-22T17:17:54.112Z,19.42
2022-12-22T17:20:23.777Z,20.20
2022-12-22T17:22:58.901Z,20.25
2022-12-22T17:25:31.279Z,21.27
2022-12-22T17:28:01.959Z,21.75
2022-12-22T17:30:29.279Z,20.77
2022-12-22T17:32:57.046Z,20.88
2022-12-22T17:35:26.083Z,21.30
2022-12-22T17:37:54.566Z,23.40
2022-12-22T17:40:24.756Z,22.30
2022-12-22T17:42:53.674Z,20.67
2022-12-22T17:45:21.371Z,19.45
2022-12-22T17:47:49.178Z,22.15
2022-12-22T17:50:20.075Z,18.30
2022-12-22T17:52:49.260Z,20.40
2022-12-22T17:56:05.643Z,18.83
2022-12-22T17:58:17.233Z,21.48
2022-12-22T18:00:44.982Z,18.38
2022-12-22T18:03:14.699Z,18.95
2022-12-22T18:05:47.060Z,24.73
2022-12-22T18:08:20.182Z,21.90
2022-12-22T18:10:48.444Z,22.42
2022-12-22T18:13:20.238Z,21.63
2022-12-22T18:15:47.650Z,23.98
2022-12-22T18:18:17.078Z,22.08
2022-12-22T18:21:07.374Z,25.58
2022-12-22T18:23:37.187Z,25.85
2022-12-22T18:26:08.508Z,26.70
2022-12-22T18:28:36.965Z,26.95
2022-12-22T18:31:04.267Z,25.10
2022-12-22T18:33:31.945Z,27.02
2022-12-22T18:35:59.872Z,29.67
2022-12-22T18:38:33.386Z,28.90
2022-12-22T18:41:00.899Z,27.52
2022-12-22T18:43:28.490Z,29.17
2022-12-22T18:45:55.876Z,29.83
2022-12-22T18:48:23.488Z,26.85
2022-12-22T18:50:50.862Z,28.98
2022-12-22T18:53:21.433Z,33.58
2022-12-22T18:55:48.858Z,30.05
2022-12-22T18:58:16.485Z,29.10
2022-12-22T19:00:44.544Z,28.35
2022-12-22T19:03:21.778Z,28.60
2022-12-22T19:05:50.149Z,31.58
2022-12-22T19:08:23.272Z,28.75
2022-12-22T19:10:56.886Z,32.20
2022-12-22T19:13:39.541Z,29.42
2022-12-22T19:16:07.839Z,29.27
2022-12-22T19:18:35.540Z,30.98
2022-12-22T19:21:02.824Z,35.30
2022-12-22T19:23:30.474Z,31.98
2022-12-22T19:26:08.575Z,33.20
2022-12-22T19:28:43.066Z,30.70
2022-12-22T19:31:20.881Z,37.75
2022-12-22T19:33:49.620Z,36.47
2022-12-22T19:36:21.826Z,32.05
2022-12-22T19:38:51.085Z,31.65
2022-12-22T19:41:43.001Z,35.03
2022-12-22T19:44:25.073Z,34.53
2022-12-22T19:46:53.966Z,33.70
2022-12-22T19:49:30.011Z,31.98
2022-12-22T19:51:58.285Z,32.47
2022-12-22T19:54:25.873Z,33.40
2022-12-22T19:56:55.730Z,34.47
2022-12-22T19:59:41.404Z,34.63
2022-12-22T20:02:21.445Z,34.15
2022-12-22T20:04:49.961Z,30.60
2022-12-22T20:07:19.456Z,34.35
2022-12-22T20:09:47.380Z,29.70
2022-12-22T20:12:23.694Z,29.77
2022-12-22T20:14:52.115Z,29.33
2022-12-22T20:17:19.897Z,30.05
2022-12-22T20:19:48.053Z,30.15
2022-12-22T20:22:21.286Z,29.70
2022-12-22T20:24:50.679Z,28.02
2022-12-22T20:27:22.580Z,28.75
2022-12-22T20:29:50.338Z,29.38
2022-12-22T20:32:22.385Z,30.77
2022-12-22T20:34:54.883Z,27.27
2022-12-22T20:37:22.407Z,24.40
2022-12-22T20:39:49.970Z,25.08
2022-12-22T20:42:23.569Z,25.40
2022-12-22T20:45:02.569Z,23.40
2022-12-22T20:47:34.461Z,25.33
2022-12-22T20:50:02.269Z,21.25
2022-12-22T20:52:29.652Z,25.63
2022-12-22T20:54:57.200Z,20.20
2022-12-22T20:57:25.971Z,23.52
2022-12-22T20:59:56.480Z,22.75
2022-12-22T21:02:28.172Z,19.88
2022-12-22T21:04:56.590Z,20.27
2022-12-22T21:07:24.123Z,21.00
2022-12-22T21:09:51.713Z,22.05
2022-12-22T21:12:19.067Z,23.42
2022-12-22T21:14:46.641Z,27.48
2022-12-22T21:17:18.241Z,24.35
2022-12-22T21:22:13.121Z,24.52
2022-12-22T21:24:41.901Z,26.30
2022-12-22T21:27:17.202Z,21.27
2022-12-22T21:29:45.063Z,26.90
2022-12-22T21:32:15.899Z,25.52
2022-12-22T21:34:43.551Z,25.73
2022-12-22T21:37:19.015Z,26.23
2022-12-22T21:39:46.645Z,24.38
2022-12-22T21:42:18.730Z,27.33
2022-12-22T21:44:46.569Z,27.15
2022-12-22T21:47:16.609Z,26.90
2022-12-22T21:49:44.429Z,24.10
2022-12-22T21:52:11.753Z,26.63
2022-12-22T21:54:39.570Z,25.95
2022-12-22T21:57:06.877Z,110.53
2022-12-22T21:59:34.417Z,31.95
2022-12-22T22:02:01.741Z,30.55
2022-12-22T22:04:29.473Z,20.83
2022-12-22T22:06:57.962Z,24.33
2022-12-22T22:09:25.551Z,18.88
2022-12-22T22:12:11.305Z,19.23
2022-12-22T22:14:38.849Z,19.52
2022-12-22T22:17:06.190Z,20.58
2022-12-22T22:19:33.801Z,19.55
2022-12-22T22:22:01.067Z,18.98
2022-12-22T22:24:31.102Z,17.20
2022-12-22T22:26:59.239Z,17.10
2022-12-22T22:29:26.837Z,15.05
2022-12-22T22:31:54.154Z,14.90
2022-12-22T22:34:21.751Z,12.07
2022-12-22T22:36:49.266Z,14.18
2022-12-22T22:39:17.039Z,14.27
2022-12-22T22:41:44.290Z,12.35
2022-12-22T22:44:12.341Z,12.45
2022-12-22T22:46:40.726Z,11.10
2022-12-22T22:49:08.689Z,10.85
2022-12-22T22:51:36.133Z,10.00
2022-12-22T22:54:03.929Z,9.50
2022-12-22T22:56:31.184Z,9.10
2022-12-22T22:58:59.578Z,10.07
2022-12-22T23:01:27.039Z,10.07
2022-12-22T23:03:55.788Z,10.77
2022-12-22T23:06:23.178Z,9.10
2022-12-22T23:08:51.007Z,9.35
2022-12-22T23:11:18.303Z,10.95
2022-12-22T23:13:46.064Z,12.50
2022-12-22T23:16:13.644Z,10.52
2022-12-22T23:18:41.364Z,11.30
2022-12-22T23:21:09.639Z,10.07
2022-12-22T23:23:37.350Z,12.13
2022-12-22T23:26:04.983Z,10.60
2022-12-22T23:28:33.800Z,8.38
2022-12-22T23:31:01.390Z,11.18
2022-12-22T23:33:31.845Z,8.90
2022-12-22T23:35:59.337Z,7.78
2022-12-22T23:38:27.033Z,9.75
2022-12-22T23:41:02.945Z,10.43
2022-12-22T23:43:31.063Z,8.85
2022-12-22T23:45:58.808Z,9.70
2022-12-22T23:48:26.351Z,10.38
2022-12-22T23:50:53.678Z,10.50
2022-12-22T23:53:21.348Z,10.63
2022-12-22T23:55:49.694Z,8.82
2022-12-22T23:58:17.799Z,11.55
